sensor_id;sensor_type;location;lat;lon;timestamp;P1;durP1;ratioP1;P2;durP2;ratioP2
11287;SDS011;5700;50.996;7.044;2022-09-09T00:01:32;4.13;;;1.00;;
11287;SDS011;5700;50.996;7.044;2022-09-09T00:04:38;4.97;;;1.10;;
11287;SDS011;5700;50.996;7.044;2022-09-09T00:07:43;6.32;;;1.63;;
11287;SDS011;5700;50.996;7.044;2022-09-09T00:10:48;4.10;;;1.20;;
11287;SDS011;5700;50.996;7.044;2022-09-09T00:13:55;4.65;;;1.17;;
11287;SDS011;5700;50.996;7.044;2022-09-09T00:17:00;2.60;;;1.13;;
11287;SDS011;5700;50.996;7.044;2022-09-09T00:20:05;3.15;;;1.05;;
11287;SDS011;5700;50.996;7.044;2022-09-09T00:23:14;4.20;;;1.00;;
11287;SDS011;5700;50.996;7.044;2022-09-09T00:26:20;2.50;;;1.00;;
11287;SDS011;5700;50.996;7.044;2022-09-09T00:29:26;3.55;;;0.90;;
11287;SDS011;5700;50.996;7.044;2022-09-09T00:32:32;3.45;;;1.00;;
11287;SDS011;5700;50.996;7.044;2022-09-09T00:35:36;4.20;;;1.15;;
11287;SDS011;5700;50.996;7.044;2022-09-09T00:38:40;4.60;;;1.42;;
11287;SDS011;5700;50.996;7.044;2022-09-09T00:41:47;2.92;;;1.17;;
11287;SDS011;5700;50.996;7.044;2022-09-09T00:44:59;2.85;;;1.02;;
11287;SDS011;5700;50.996;7.044;2022-09-09T00:48:05;3.25;;;1.10;;
11287;SDS011;5700;50.996;7.044;2022-09-09T00:51:12;3.38;;;1.00;;
11287;SDS011;5700;50.996;7.044;2022-09-09T00:54:24;2.05;;;1.00;;
11287;SDS011;5700;50.996;7.044;2022-09-09T00:57:30;3.30;;;1.13;;
11287;SDS011;5700;50.996;7.044;2022-09-09T01:00:33;3.35;;;1.15;;
11287;SDS011;5700;50.996;7.044;2022-09-09T01:03:39;4.95;;;1.35;;
11287;SDS011;5700;50.996;7.044;2022-09-09T01:06:45;1.42;;;0.90;;
11287;SDS011;5700;50.996;7.044;2022-09-09T01:09:54;4.68;;;1.30;;
11287;SDS011;5700;50.996;7.044;2022-09-09T01:12:58;4.75;;;0.93;;
11287;SDS011;5700;50.996;7.044;2022-09-09T01:16:04;4.90;;;1.00;;
11287;SDS011;5700;50.996;7.044;2022-09-09T01:19:11;4.35;;;1.10;;
11287;SDS011;5700;50.996;7.044;2022-09-09T01:22:21;3.17;;;0.95;;
11287;SDS011;5700;50.996;7.044;2022-09-09T01:25:29;3.08;;;0.90;;
11287;SDS011;5700;50.996;7.044;2022-09-09T01:28:57;2.55;;;0.90;;
11287;SDS011;5700;50.996;7.044;2022-09-09T01:31:59;2.22;;;0.90;;
11287;SDS011;5700;50.996;7.044;2022-09-09T01:35:02;4.68;;;0.80;;
11287;SDS011;5700;50.996;7.044;2022-09-09T01:38:04;3.85;;;0.80;;
11287;SDS011;5700;50.996;7.044;2022-09-09T01:41:07;1.65;;;0.90;;
11287;SDS011;5700;50.996;7.044;2022-09-09T01:44:08;1.42;;;0.70;;
11287;SDS011;5700;50.996;7.044;2022-09-09T01:47:10;1.65;;;0.60;;
11287;SDS011;5700;50.996;7.044;2022-09-09T01:50:12;3.78;;;0.98;;
11287;SDS011;5700;50.996;7.044;2022-09-09T01:53:16;2.97;;;0.88;;
11287;SDS011;5700;50.996;7.044;2022-09-09T01:56:24;3.80;;;1.05;;
11287;SDS011;5700;50.996;7.044;2022-09-09T01:59:35;1.67;;;0.70;;
11287;SDS011;5700;50.996;7.044;2022-09-09T02:02:48;2.03;;;0.70;;
11287;SDS011;5700;50.996;7.044;2022-09-09T02:05:56;3.60;;;1.00;;
11287;SDS011;5700;50.996;7.044;2022-09-09T02:09:02;4.30;;;0.80;;
11287;SDS011;5700;50.996;7.044;2022-09-09T02:12:08;3.33;;;0.73;;
11287;SDS011;5700;50.996;7.044;2022-09-09T02:15:14;2.35;;;0.98;;
11287;SDS011;5700;50.996;7.044;2022-09-09T02:18:21;2.13;;;0.77;;
11287;SDS011;5700;50.996;7.044;2022-09-09T02:21:25;1.67;;;0.60;;
11287;SDS011;5700;50.996;7.044;2022-09-09T02:24:29;4.85;;;0.93;;
11287;SDS011;5700;50.996;7.044;2022-09-09T02:27:33;5.22;;;0.93;;
11287;SDS011;5700;50.996;7.044;2022-09-09T02:30:34;1.92;;;0.88;;
11287;SDS011;5700;50.996;7.044;2022-09-09T02:33:42;7.00;;;1.20;;
11287;SDS011;5700;50.996;7.044;2022-09-09T02:36:46;1.13;;;0.75;;
11287;SDS011;5700;50.996;7.044;2022-09-09T02:39:48;4.18;;;0.80;;
11287;SDS011;5700;50.996;7.044;2022-09-09T02:42:50;2.80;;;0.70;;
11287;SDS011;5700;50.996;7.044;2022-09-09T02:45:53;2.65;;;0.88;;
11287;SDS011;5700;50.996;7.044;2022-09-09T02:48:59;2.97;;;1.00;;
11287;SDS011;5700;50.996;7.044;2022-09-09T02:52:04;1.70;;;1.02;;
11287;SDS011;5700;50.996;7.044;2022-09-09T02:55:08;1.83;;;1.00;;
11287;SDS011;5700;50.996;7.044;2022-09-09T02:58:16;4.93;;;1.02;;
11287;SDS011;5700;50.996;7.044;2022-09-09T03:01:18;2.65;;;0.90;;
11287;SDS011;5700;50.996;7.044;2022-09-09T03:04:20;4.88;;;0.98;;
11287;SDS011;5700;50.996;7.044;2022-09-09T03:07:21;3.33;;;0.90;;
11287;SDS011;5700;50.996;7.044;2022-09-09T03:10:23;1.33;;;0.75;;
11287;SDS011;5700;50.996;7.044;2022-09-09T03:13:26;3.17;;;1.10;;
11287;SDS011;5700;50.996;7.044;2022-09-09T03:16:27;3.42;;;0.90;;
11287;SDS011;5700;50.996;7.044;2022-09-09T03:19:29;5.15;;;1.25;;
11287;SDS011;5700;50.996;7.044;2022-09-09T03:22:31;2.53;;;0.82;;
11287;SDS011;5700;50.996;7.044;2022-09-09T03:25:33;3.78;;;1.30;;
11287;SDS011;5700;50.996;7.044;2022-09-09T03:28:36;6.18;;;1.15;;
11287;SDS011;5700;50.996;7.044;2022-09-09T03:31:38;3.22;;;1.05;;
11287;SDS011;5700;50.996;7.044;2022-09-09T03:34:39;4.30;;;1.52;;
11287;SDS011;5700;50.996;7.044;2022-09-09T03:37:41;4.97;;;1.10;;
11287;SDS011;5700;50.996;7.044;2022-09-09T03:40:48;2.70;;;1.10;;
11287;SDS011;5700;50.996;7.044;2022-09-09T03:43:51;2.53;;;0.98;;
11287;SDS011;5700;50.996;7.044;2022-09-09T03:46:52;2.70;;;1.00;;
11287;SDS011;5700;50.996;7.044;2022-09-09T03:49:54;3.70;;;1.02;;
11287;SDS011;5700;50.996;7.044;2022-09-09T03:52:55;2.45;;;0.80;;
11287;SDS011;5700;50.996;7.044;2022-09-09T03:55:57;4.60;;;1.00;;
11287;SDS011;5700;50.996;7.044;2022-09-09T03:59:00;2.70;;;0.98;;
11287;SDS011;5700;50.996;7.044;2022-09-09T04:02:02;1.55;;;0.88;;
11287;SDS011;5700;50.996;7.044;2022-09-09T04:05:04;7.35;;;1.00;;
11287;SDS011;5700;50.996;7.044;2022-09-09T04:08:06;1.40;;;0.80;;
11287;SDS011;5700;50.996;7.044;2022-09-09T04:11:08;2.38;;;0.70;;
11287;SDS011;5700;50.996;7.044;2022-09-09T04:14:11;6.10;;;0.90;;
11287;SDS011;5700;50.996;7.044;2022-09-09T04:17:12;5.00;;;1.05;;
11287;SDS011;5700;50.996;7.044;2022-09-09T04:20:14;2.50;;;0.88;;
11287;SDS011;5700;50.996;7.044;2022-09-09T04:23:15;2.70;;;0.80;;
11287;SDS011;5700;50.996;7.044;2022-09-09T04:26:18;4.97;;;0.90;;
11287;SDS011;5700;50.996;7.044;2022-09-09T04:29:21;2.25;;;0.90;;
11287;SDS011;5700;50.996;7.044;2022-09-09T04:32:22;1.55;;;1.00;;
11287;SDS011;5700;50.996;7.044;2022-09-09T04:35:26;4.90;;;0.95;;
11287;SDS011;5700;50.996;7.044;2022-09-09T04:38:28;3.28;;;0.80;;
11287;SDS011;5700;50.996;7.044;2022-09-09T04:41:29;2.63;;;0.90;;
11287;SDS011;5700;50.996;7.044;2022-09-09T04:44:32;3.53;;;0.90;;
11287;SDS011;5700;50.996;7.044;2022-09-09T04:47:34;4.20;;;0.90;;
11287;SDS011;5700;50.996;7.044;2022-09-09T04:50:36;5.00;;;1.20;;
11287;SDS011;5700;50.996;7.044;2022-09-09T04:53:37;3.30;;;0.95;;
11287;SDS011;5700;50.996;7.044;2022-09-09T04:56:39;4.10;;;0.90;;
11287;SDS011;5700;50.996;7.044;2022-09-09T04:59:43;5.15;;;0.98;;
11287;SDS011;5700;50.996;7.044;2022-09-09T05:02:46;4.75;;;1.08;;
11287;SDS011;5700;50.996;7.044;2022-09-09T05:05:48;3.65;;;0.93;;
11287;SDS011;5700;50.996;7.044;2022-09-09T05:08:49;4.32;;;1.02;;
11287;SDS011;5700;50.996;7.044;2022-09-09T05:11:51;3.75;;;1.20;;
11287;SDS011;5700;50.996;7.044;2022-09-09T05:14:54;6.20;;;0.88;;
11287;SDS011;5700;50.996;7.044;2022-09-09T05:17:56;4.50;;;1.00;;
11287;SDS011;5700;50.996;7.044;2022-09-09T05:20:59;4.00;;;1.00;;
11287;SDS011;5700;50.996;7.044;2022-09-09T05:24:01;3.10;;;0.80;;
11287;SDS011;5700;50.996;7.044;2022-09-09T05:27:02;5.60;;;1.02;;
11287;SDS011;5700;50.996;7.044;2022-09-09T05:30:07;1.20;;;1.05;;
11287;SDS011;5700;50.996;7.044;2022-09-09T05:33:09;2.78;;;0.95;;
11287;SDS011;5700;50.996;7.044;2022-09-09T05:36:11;4.57;;;1.27;;
11287;SDS011;5700;50.996;7.044;2022-09-09T05:39:14;2.38;;;1.00;;
11287;SDS011;5700;50.996;7.044;2022-09-09T05:42:15;4.55;;;1.17;;
11287;SDS011;5700;50.996;7.044;2022-09-09T05:45:18;4.45;;;0.95;;
11287;SDS011;5700;50.996;7.044;2022-09-09T05:48:19;3.80;;;1.00;;
11287;SDS011;5700;50.996;7.044;2022-09-09T05:51:22;4.78;;;1.17;;
11287;SDS011;5700;50.996;7.044;2022-09-09T05:54:26;3.72;;;1.02;;
11287;SDS011;5700;50.996;7.044;2022-09-09T05:57:27;4.18;;;1.00;;
11287;SDS011;5700;50.996;7.044;2022-09-09T06:00:30;8.00;;;1.60;;
11287;SDS011;5700;50.996;7.044;2022-09-09T06:03:32;7.35;;;2.03;;
11287;SDS011;5700;50.996;7.044;2022-09-09T06:06:34;2.88;;;1.23;;
11287;SDS011;5700;50.996;7.044;2022-09-09T06:09:36;3.22;;;1.05;;
11287;SDS011;5700;50.996;7.044;2022-09-09T06:12:38;1.40;;;0.80;;
11287;SDS011;5700;50.996;7.044;2022-09-09T06:15:40;5.95;;;1.20;;
11287;SDS011;5700;50.996;7.044;2022-09-09T06:18:51;5.78;;;1.23;;
11287;SDS011;5700;50.996;7.044;2022-09-09T06:21:53;5.30;;;1.35;;
11287;SDS011;5700;50.996;7.044;2022-09-09T06:24:55;6.95;;;1.55;;
11287;SDS011;5700;50.996;7.044;2022-09-09T06:27:56;5.88;;;1.15;;
11287;SDS011;5700;50.996;7.044;2022-09-09T06:30:59;4.90;;;1.60;;
11287;SDS011;5700;50.996;7.044;2022-09-09T06:34:01;6.68;;;1.10;;
11287;SDS011;5700;50.996;7.044;2022-09-09T06:37:05;5.57;;;1.50;;
11287;SDS011;5700;50.996;7.044;2022-09-09T06:40:08;7.07;;;1.50;;
11287;SDS011;5700;50.996;7.044;2022-09-09T06:43:11;3.78;;;1.00;;
11287;SDS011;5700;50.996;7.044;2022-09-09T06:46:14;2.35;;;1.20;;
11287;SDS011;5700;50.996;7.044;2022-09-09T06:49:16;6.05;;;1.27;;
11287;SDS011;5700;50.996;7.044;2022-09-09T06:52:17;6.05;;;1.50;;
11287;SDS011;5700;50.996;7.044;2022-09-09T06:55:19;6.38;;;1.58;;
11287;SDS011;5700;50.996;7.044;2022-09-09T06:58:20;3.22;;;1.85;;
11287;SDS011;5700;50.996;7.044;2022-09-09T07:01:25;3.55;;;1.10;;
11287;SDS011;5700;50.996;7.044;2022-09-09T07:04:28;3.72;;;1.10;;
11287;SDS011;5700;50.996;7.044;2022-09-09T07:07:29;2.30;;;0.80;;
11287;SDS011;5700;50.996;7.044;2022-09-09T07:10:30;10.95;;;2.03;;
11287;SDS011;5700;50.996;7.044;2022-09-09T07:13:34;5.30;;;1.10;;
11287;SDS011;5700;50.996;7.044;2022-09-09T07:16:37;6.10;;;1.63;;
11287;SDS011;5700;50.996;7.044;2022-09-09T07:19:39;4.25;;;1.20;;
11287;SDS011;5700;50.996;7.044;2022-09-09T07:22:40;4.25;;;1.48;;
11287;SDS011;5700;50.996;7.044;2022-09-09T07:25:44;8.85;;;1.65;;
11287;SDS011;5700;50.996;7.044;2022-09-09T07:28:45;4.93;;;1.30;;
11287;SDS011;5700;50.996;7.044;2022-09-09T07:31:48;3.72;;;1.30;;
11287;SDS011;5700;50.996;7.044;2022-09-09T07:34:49;7.35;;;1.70;;
11287;SDS011;5700;50.996;7.044;2022-09-09T07:37:51;6.05;;;0.88;;
11287;SDS011;5700;50.996;7.044;2022-09-09T07:40:52;1.63;;;0.80;;
11287;SDS011;5700;50.996;7.044;2022-09-09T07:43:54;3.60;;;1.00;;
11287;SDS011;5700;50.996;7.044;2022-09-09T07:46:57;4.50;;;1.58;;
11287;SDS011;5700;50.996;7.044;2022-09-09T07:49:59;2.25;;;0.70;;
11287;SDS011;5700;50.996;7.044;2022-09-09T07:53:00;4.63;;;1.00;;
11287;SDS011;5700;50.996;7.044;2022-09-09T07:56:03;4.15;;;1.00;;
11287;SDS011;5700;50.996;7.044;2022-09-09T07:59:05;6.80;;;1.10;;
11287;SDS011;5700;50.996;7.044;2022-09-09T08:02:09;3.72;;;0.70;;
11287;SDS011;5700;50.996;7.044;2022-09-09T08:05:11;3.75;;;0.90;;
11287;SDS011;5700;50.996;7.044;2022-09-09T08:08:12;2.83;;;0.73;;
11287;SDS011;5700;50.996;7.044;2022-09-09T08:11:14;2.60;;;0.90;;
11287;SDS011;5700;50.996;7.044;2022-09-09T08:14:15;2.95;;;0.90;;
11287;SDS011;5700;50.996;7.044;2022-09-09T08:17:19;3.38;;;0.82;;
11287;SDS011;5700;50.996;7.044;2022-09-09T08:20:20;3.92;;;0.95;;
11287;SDS011;5700;50.996;7.044;2022-09-09T08:23:23;4.30;;;1.10;;
11287;SDS011;5700;50.996;7.044;2022-09-09T08:26:26;9.75;;;1.17;;
11287;SDS011;5700;50.996;7.044;2022-09-09T08:29:29;4.05;;;0.88;;
11287;SDS011;5700;50.996;7.044;2022-09-09T08:32:31;4.10;;;0.98;;
11287;SDS011;5700;50.996;7.044;2022-09-09T08:35:34;4.88;;;0.60;;
11287;SDS011;5700;50.996;7.044;2022-09-09T08:38:36;3.42;;;0.68;;
11287;SDS011;5700;50.996;7.044;2022-09-09T08:41:40;8.00;;;0.95;;
11287;SDS011;5700;50.996;7.044;2022-09-09T08:48:32;3.25;;;1.10;;
11287;SDS011;5700;50.996;7.044;2022-09-09T08:51:41;2.97;;;0.77;;
11287;SDS011;5700;50.996;7.044;2022-09-09T08:54:43;5.00;;;1.17;;
11287;SDS011;5700;50.996;7.044;2022-09-09T08:57:44;7.53;;;0.77;;
11287;SDS011;5700;50.996;7.044;2022-09-09T09:00:57;4.55;;;0.98;;
11287;SDS011;5700;50.996;7.044;2022-09-09T09:04:06;5.43;;;0.80;;
11287;SDS011;5700;50.996;7.044;2022-09-09T09:07:16;3.15;;;0.63;;
11287;SDS011;5700;50.996;7.044;2022-09-09T09:10:26;4.18;;;0.80;;
11287;SDS011;5700;50.996;7.044;2022-09-09T09:13:34;1.75;;;0.68;;
11287;SDS011;5700;50.996;7.044;2022-09-09T09:16:42;5.20;;;1.45;;
11287;SDS011;5700;50.996;7.044;2022-09-09T09:19:51;5.22;;;0.80;;
11287;SDS011;5700;50.996;7.044;2022-09-09T09:22:52;4.75;;;0.80;;
11287;SDS011;5700;50.996;7.044;2022-09-09T09:25:56;4.22;;;0.70;;
11287;SDS011;5700;50.996;7.044;2022-09-09T09:29:01;1.67;;;0.60;;
11287;SDS011;5700;50.996;7.044;2022-09-09T09:32:10;3.35;;;0.68;;
11287;SDS011;5700;50.996;7.044;2022-09-09T09:35:16;2.47;;;0.70;;
11287;SDS011;5700;50.996;7.044;2022-09-09T09:38:18;4.97;;;0.70;;
11287;SDS011;5700;50.996;7.044;2022-09-09T09:41:30;2.90;;;0.70;;
11287;SDS011;5700;50.996;7.044;2022-09-09T09:44:32;4.18;;;0.70;;
11287;SDS011;5700;50.996;7.044;2022-09-09T09:47:37;4.15;;;0.90;;
11287;SDS011;5700;50.996;7.044;2022-09-09T09:50:47;3.60;;;1.00;;
11287;SDS011;5700;50.996;7.044;2022-09-09T09:53:50;2.78;;;0.95;;
11287;SDS011;5700;50.996;7.044;2022-09-09T09:56:52;1.38;;;0.50;;
11287;SDS011;5700;50.996;7.044;2022-09-09T10:00:03;1.08;;;0.65;;
11287;SDS011;5700;50.996;7.044;2022-09-09T10:03:18;2.63;;;0.77;;
11287;SDS011;5700;50.996;7.044;2022-09-09T10:06:32;2.90;;;0.73;;
11287;SDS011;5700;50.996;7.044;2022-09-09T10:09:35;5.53;;;0.70;;
11287;SDS011;5700;50.996;7.044;2022-09-09T10:12:39;2.45;;;0.70;;
11287;SDS011;5700;50.996;7.044;2022-09-09T10:15:50;2.67;;;0.93;;
11287;SDS011;5700;50.996;7.044;2022-09-09T10:18:58;3.88;;;0.70;;
11287;SDS011;5700;50.996;7.044;2022-09-09T10:22:05;3.05;;;0.45;;
11287;SDS011;5700;50.996;7.044;2022-09-09T10:25:20;3.92;;;0.65;;
11287;SDS011;5700;50.996;7.044;2022-09-09T10:28:30;2.58;;;0.93;;
11287;SDS011;5700;50.996;7.044;2022-09-09T10:31:38;1.48;;;0.60;;
11287;SDS011;5700;50.996;7.044;2022-09-09T10:34:51;2.50;;;0.65;;
11287;SDS011;5700;50.996;7.044;2022-09-09T10:38:05;2.85;;;0.50;;
11287;SDS011;5700;50.996;7.044;2022-09-09T10:41:15;2.97;;;0.50;;
11287;SDS011;5700;50.996;7.044;2022-09-09T10:44:25;3.67;;;0.93;;
11287;SDS011;5700;50.996;7.044;2022-09-09T10:47:37;2.08;;;0.55;;
11287;SDS011;5700;50.996;7.044;2022-09-09T10:50:51;1.95;;;1.02;;
11287;SDS011;5700;50.996;7.044;2022-09-09T10:54:02;2.85;;;0.50;;
11287;SDS011;5700;50.996;7.044;2022-09-09T10:57:13;4.65;;;1.00;;
11287;SDS011;5700;50.996;7.044;2022-09-09T11:00:19;4.70;;;0.63;;
11287;SDS011;5700;50.996;7.044;2022-09-09T11:03:23;2.22;;;0.60;;
11287;SDS011;5700;50.996;7.044;2022-09-09T11:06:29;2.20;;;0.73;;
11287;SDS011;5700;50.996;7.044;2022-09-09T11:09:36;2.78;;;0.73;;
11287;SDS011;5700;50.996;7.044;2022-09-09T11:12:40;2.42;;;0.52;;
11287;SDS011;5700;50.996;7.044;2022-09-09T11:15:45;2.88;;;0.82;;
11287;SDS011;5700;50.996;7.044;2022-09-09T11:18:47;3.45;;;0.82;;
11287;SDS011;5700;50.996;7.044;2022-09-09T11:21:49;5.20;;;0.68;;
11287;SDS011;5700;50.996;7.044;2022-09-09T11:24:54;4.30;;;0.60;;
11287;SDS011;5700;50.996;7.044;2022-09-09T11:28:01;2.22;;;0.45;;
11287;SDS011;5700;50.996;7.044;2022-09-09T11:31:16;1.55;;;0.60;;
11287;SDS011;5700;50.996;7.044;2022-09-09T11:34:34;2.47;;;0.90;;
11287;SDS011;5700;50.996;7.044;2022-09-09T11:37:47;4.05;;;0.77;;
11287;SDS011;5700;50.996;7.044;2022-09-09T11:40:58;2.55;;;0.47;;
11287;SDS011;5700;50.996;7.044;2022-09-09T11:44:08;1.15;;;0.43;;
11287;SDS011;5700;50.996;7.044;2022-09-09T11:47:16;3.78;;;0.82;;
11287;SDS011;5700;50.996;7.044;2022-09-09T11:50:31;2.03;;;0.50;;
11287;SDS011;5700;50.996;7.044;2022-09-09T11:53:35;2.15;;;0.60;;
11287;SDS011;5700;50.996;7.044;2022-09-09T11:56:43;3.70;;;0.55;;
11287;SDS011;5700;50.996;7.044;2022-09-09T11:59:49;2.97;;;0.60;;
11287;SDS011;5700;50.996;7.044;2022-09-09T12:02:52;1.48;;;0.57;;
11287;SDS011;5700;50.996;7.044;2022-09-09T12:05:53;1.65;;;0.40;;
11287;SDS011;5700;50.996;7.044;2022-09-09T12:08:57;3.50;;;0.57;;
11287;SDS011;5700;50.996;7.044;2022-09-09T12:12:17;2.55;;;0.50;;
11287;SDS011;5700;50.996;7.044;2022-09-09T12:15:25;2.03;;;0.75;;
11287;SDS011;5700;50.996;7.044;2022-09-09T12:18:32;1.88;;;0.45;;
11287;SDS011;5700;50.996;7.044;2022-09-09T12:21:36;1.75;;;0.50;;
11287;SDS011;5700;50.996;7.044;2022-09-09T12:24:43;1.60;;;0.60;;
11287;SDS011;5700;50.996;7.044;2022-09-09T12:27:54;2.85;;;0.50;;
11287;SDS011;5700;50.996;7.044;2022-09-09T12:31:03;3.63;;;0.73;;
11287;SDS011;5700;50.996;7.044;2022-09-09T12:34:09;0.85;;;0.57;;
11287;SDS011;5700;50.996;7.044;2022-09-09T12:37:15;2.05;;;0.50;;
11287;SDS011;5700;50.996;7.044;2022-09-09T12:40:19;6.78;;;0.77;;
11287;SDS011;5700;50.996;7.044;2022-09-09T12:43:24;1.92;;;0.52;;
11287;SDS011;5700;50.996;7.044;2022-09-09T12:46:29;2.72;;;0.60;;
11287;SDS011;5700;50.996;7.044;2022-09-09T12:49:34;3.65;;;0.52;;
11287;SDS011;5700;50.996;7.044;2022-09-09T12:52:38;2.28;;;0.60;;
11287;SDS011;5700;50.996;7.044;2022-09-09T12:55:48;1.70;;;0.52;;
11287;SDS011;5700;50.996;7.044;2022-09-09T12:58:52;1.98;;;0.50;;
11287;SDS011;5700;50.996;7.044;2022-09-09T13:01:55;2.15;;;0.50;;
11287;SDS011;5700;50.996;7.044;2022-09-09T13:05:05;2.85;;;0.60;;
11287;SDS011;5700;50.996;7.044;2022-09-09T13:08:08;1.33;;;0.40;;
11287;SDS011;5700;50.996;7.044;2022-09-09T13:11:12;2.72;;;0.45;;
11287;SDS011;5700;50.996;7.044;2022-09-09T13:14:17;3.83;;;0.52;;
11287;SDS011;5700;50.996;7.044;2022-09-09T13:17:24;0.70;;;0.30;;
11287;SDS011;5700;50.996;7.044;2022-09-09T13:20:28;0.98;;;0.50;;
11287;SDS011;5700;50.996;7.044;2022-09-09T13:23:31;1.77;;;0.50;;
11287;SDS011;5700;50.996;7.044;2022-09-09T13:26:35;4.45;;;0.90;;
11287;SDS011;5700;50.996;7.044;2022-09-09T13:29:39;2.17;;;0.50;;
11287;SDS011;5700;50.996;7.044;2022-09-09T13:32:41;0.95;;;0.45;;
11287;SDS011;5700;50.996;7.044;2022-09-09T13:35:45;3.08;;;0.70;;
11287;SDS011;5700;50.996;7.044;2022-09-09T13:38:53;2.17;;;0.57;;
11287;SDS011;5700;50.996;7.044;2022-09-09T13:41:55;2.95;;;0.70;;
11287;SDS011;5700;50.996;7.044;2022-09-09T13:44:58;2.97;;;0.52;;
11287;SDS011;5700;50.996;7.044;2022-09-09T13:48:08;1.75;;;0.30;;
11287;SDS011;5700;50.996;7.044;2022-09-09T13:51:23;1.05;;;0.40;;
11287;SDS011;5700;50.996;7.044;2022-09-09T13:54:30;1.02;;;0.43;;
11287;SDS011;5700;50.996;7.044;2022-09-09T13:57:32;6.80;;;0.70;;
11287;SDS011;5700;50.996;7.044;2022-09-09T14:00:35;2.78;;;0.70;;
11287;SDS011;5700;50.996;7.044;2022-09-09T14:03:36;1.23;;;0.47;;
11287;SDS011;5700;50.996;7.044;2022-09-09T14:06:38;1.30;;;0.30;;
11287;SDS011;5700;50.996;7.044;2022-09-09T14:09:40;1.90;;;0.45;;
11287;SDS011;5700;50.996;7.044;2022-09-09T14:12:42;2.25;;;0.77;;
11287;SDS011;5700;50.996;7.044;2022-09-09T14:15:44;2.33;;;0.70;;
11287;SDS011;5700;50.996;7.044;2022-09-09T14:18:46;0.75;;;0.32;;
11287;SDS011;5700;50.996;7.044;2022-09-09T14:21:47;1.27;;;0.40;;
11287;SDS011;5700;50.996;7.044;2022-09-09T14:24:49;3.35;;;0.77;;
11287;SDS011;5700;50.996;7.044;2022-09-09T14:27:51;1.75;;;0.50;;
11287;SDS011;5700;50.996;7.044;2022-09-09T14:30:54;3.33;;;0.50;;
11287;SDS011;5700;50.996;7.044;2022-09-09T14:33:55;1.20;;;0.50;;
11287;SDS011;5700;50.996;7.044;2022-09-09T14:36:57;1.67;;;0.55;;
11287;SDS011;5700;50.996;7.044;2022-09-09T14:39:58;1.23;;;0.40;;
11287;SDS011;5700;50.996;7.044;2022-09-09T14:42:59;3.20;;;0.60;;
11287;SDS011;5700;50.996;7.044;2022-09-09T14:46:05;0.63;;;0.47;;
11287;SDS011;5700;50.996;7.044;2022-09-09T14:49:07;5.65;;;0.90;;
11287;SDS011;5700;50.996;7.044;2022-09-09T14:52:10;1.15;;;0.50;;
11287;SDS011;5700;50.996;7.044;2022-09-09T14:55:11;1.55;;;0.52;;
11287;SDS011;5700;50.996;7.044;2022-09-09T14:58:13;2.00;;;0.52;;
11287;SDS011;5700;50.996;7.044;2022-09-09T15:01:16;3.75;;;0.70;;
11287;SDS011;5700;50.996;7.044;2022-09-09T15:04:18;1.20;;;0.50;;
11287;SDS011;5700;50.996;7.044;2022-09-09T15:07:20;1.55;;;0.57;;
11287;SDS011;5700;50.996;7.044;2022-09-09T15:10:22;4.93;;;0.80;;
11287;SDS011;5700;50.996;7.044;2022-09-09T15:13:23;2.85;;;0.70;;
11287;SDS011;5700;50.996;7.044;2022-09-09T15:16:27;4.45;;;0.80;;
11287;SDS011;5700;50.996;7.044;2022-09-09T15:19:29;1.73;;;0.65;;
11287;SDS011;5700;50.996;7.044;2022-09-09T15:22:30;1.17;;;0.65;;
11287;SDS011;5700;50.996;7.044;2022-09-09T15:25:31;2.70;;;0.80;;
11287;SDS011;5700;50.996;7.044;2022-09-09T15:28:33;2.42;;;0.95;;
11287;SDS011;5700;50.996;7.044;2022-09-09T15:31:39;2.83;;;0.75;;
11287;SDS011;5700;50.996;7.044;2022-09-09T15:34:40;5.95;;;0.82;;
11287;SDS011;5700;50.996;7.044;2022-09-09T15:37:42;1.70;;;0.82;;
11287;SDS011;5700;50.996;7.044;2022-09-09T15:40:43;1.58;;;0.80;;
11287;SDS011;5700;50.996;7.044;2022-09-09T15:43:47;5.40;;;1.30;;
11287;SDS011;5700;50.996;7.044;2022-09-09T15:46:52;2.47;;;1.30;;
11287;SDS011;5700;50.996;7.044;2022-09-09T15:49:54;2.55;;;0.82;;
11287;SDS011;5700;50.996;7.044;2022-09-09T15:52:55;3.00;;;0.90;;
11287;SDS011;5700;50.996;7.044;2022-09-09T15:55:57;2.00;;;0.80;;
11287;SDS011;5700;50.996;7.044;2022-09-09T15:58:59;2.75;;;1.00;;
11287;SDS011;5700;50.996;7.044;2022-09-09T16:02:02;3.95;;;1.00;;
11287;SDS011;5700;50.996;7.044;2022-09-09T16:05:05;2.67;;;0.90;;
11287;SDS011;5700;50.996;7.044;2022-09-09T16:08:07;3.17;;;0.88;;
11287;SDS011;5700;50.996;7.044;2022-09-09T16:11:09;3.20;;;0.75;;
11287;SDS011;5700;50.996;7.044;2022-09-09T16:14:12;1.55;;;0.70;;
11287;SDS011;5700;50.996;7.044;2022-09-09T16:17:16;0.98;;;0.50;;
11287;SDS011;5700;50.996;7.044;2022-09-09T16:20:20;3.28;;;0.70;;
11287;SDS011;5700;50.996;7.044;2022-09-09T16:23:21;0.60;;;0.47;;
11287;SDS011;5700;50.996;7.044;2022-09-09T16:26:24;1.63;;;0.50;;
11287;SDS011;5700;50.996;7.044;2022-09-09T16:29:25;0.57;;;0.43;;
11287;SDS011;5700;50.996;7.044;2022-09-09T16:32:28;1.13;;;0.50;;
11287;SDS011;5700;50.996;7.044;2022-09-09T16:35:30;1.23;;;0.47;;
11287;SDS011;5700;50.996;7.044;2022-09-09T16:38:31;0.85;;;0.47;;
11287;SDS011;5700;50.996;7.044;2022-09-09T16:41:34;1.35;;;0.43;;
11287;SDS011;5700;50.996;7.044;2022-09-09T16:44:36;1.38;;;0.38;;
11287;SDS011;5700;50.996;7.044;2022-09-09T16:47:38;3.13;;;0.65;;
11287;SDS011;5700;50.996;7.044;2022-09-09T16:50:40;0.60;;;0.43;;
11287;SDS011;5700;50.996;7.044;2022-09-09T16:53:41;1.42;;;0.40;;
11287;SDS011;5700;50.996;7.044;2022-09-09T16:56:44;1.48;;;0.40;;
11287;SDS011;5700;50.996;7.044;2022-09-09T16:59:46;2.25;;;0.47;;
11287;SDS011;5700;50.996;7.044;2022-09-09T17:02:50;1.92;;;0.65;;
11287;SDS011;5700;50.996;7.044;2022-09-09T17:05:52;1.42;;;0.80;;
11287;SDS011;5700;50.996;7.044;2022-09-09T17:08:53;3.15;;;0.70;;
11287;SDS011;5700;50.996;7.044;2022-09-09T17:11:57;3.60;;;1.02;;
11287;SDS011;5700;50.996;7.044;2022-09-09T17:14:59;2.50;;;0.60;;
11287;SDS011;5700;50.996;7.044;2022-09-09T17:18:01;2.85;;;0.63;;
11287;SDS011;5700;50.996;7.044;2022-09-09T17:21:03;1.33;;;0.70;;
11287;SDS011;5700;50.996;7.044;2022-09-09T17:24:06;4.20;;;0.60;;
11287;SDS011;5700;50.996;7.044;2022-09-09T17:27:08;3.00;;;0.98;;
11287;SDS011;5700;50.996;7.044;2022-09-09T17:30:10;2.88;;;0.65;;
11287;SDS011;5700;50.996;7.044;2022-09-09T17:33:13;2.25;;;1.00;;
11287;SDS011;5700;50.996;7.044;2022-09-09T17:36:15;2.50;;;0.95;;
11287;SDS011;5700;50.996;7.044;2022-09-09T17:39:17;1.42;;;0.65;;
11287;SDS011;5700;50.996;7.044;2022-09-09T17:42:20;5.30;;;0.88;;
11287;SDS011;5700;50.996;7.044;2022-09-09T17:45:22;4.15;;;0.90;;
11287;SDS011;5700;50.996;7.044;2022-09-09T17:48:24;1.33;;;0.85;;
11287;SDS011;5700;50.996;7.044;2022-09-09T17:51:27;3.13;;;1.00;;
11287;SDS011;5700;50.996;7.044;2022-09-09T17:54:31;3.65;;;1.00;;
11287;SDS011;5700;50.996;7.044;2022-09-09T17:57:33;1.83;;;0.90;;
11287;SDS011;5700;50.996;7.044;2022-09-09T18:00:35;2.75;;;1.00;;
11287;SDS011;5700;50.996;7.044;2022-09-09T18:03:38;3.25;;;0.98;;
11287;SDS011;5700;50.996;7.044;2022-09-09T18:06:40;2.08;;;0.80;;
11287;SDS011;5700;50.996;7.044;2022-09-09T18:09:42;4.60;;;0.98;;
11287;SDS011;5700;50.996;7.044;2022-09-09T18:12:44;2.38;;;0.90;;
11287;SDS011;5700;50.996;7.044;2022-09-09T18:15:45;3.97;;;1.10;;
11287;SDS011;5700;50.996;7.044;2022-09-09T18:18:48;3.67;;;0.90;;
11287;SDS011;5700;50.996;7.044;2022-09-09T18:21:51;2.92;;;0.90;;
11287;SDS011;5700;50.996;7.044;2022-09-09T18:24:52;3.58;;;1.08;;
11287;SDS011;5700;50.996;7.044;2022-09-09T18:27:56;3.80;;;1.00;;
11287;SDS011;5700;50.996;7.044;2022-09-09T18:30:58;4.28;;;1.45;;
11287;SDS011;5700;50.996;7.044;2022-09-09T18:34:01;2.83;;;0.80;;
11287;SDS011;5700;50.996;7.044;2022-09-09T18:37:04;3.13;;;0.90;;
11287;SDS011;5700;50.996;7.044;2022-09-09T18:40:07;1.77;;;0.70;;
11287;SDS011;5700;50.996;7.044;2022-09-09T18:43:08;1.17;;;0.63;;
11287;SDS011;5700;50.996;7.044;2022-09-09T18:46:10;3.10;;;0.80;;
11287;SDS011;5700;50.996;7.044;2022-09-09T18:49:13;3.38;;;0.70;;